Time;durP1;ratioP1;P1;durP2;ratioP2;P2;SDS_P1;SDS_P2;PMS_P1;PMS_P2;Temp;Humidity;BMP_temperature;BMP_pressure;BME280_temperature;BME280_humidity;BME280_pressure;Samples;Min_cycle;Max_cycle;Signal;HPM_P1;HPM_P2
2023/01/31 00:01:10;;;;;;;2.15;0.93;;;;;;;;;;5107584;28;20063;-74
2023/01/31 00:03:41;;;;;;;9.25;1.02;;;;;;;;;;5108270;28;20048;-73
2023/01/31 00:06:24;;;;;;;3.25;1.05;;;;;;;;;;5107832;28;20055;-72
2023/01/31 00:08:56;;;;;;;3.42;1.00;;;;;;;;;;5107685;28;20047;-72
2023/01/31 00:11:28;;;;;;;11.05;1.20;;;;;;;;;;5108576;28;20046;-73
2023/01/31 00:14:00;;;;;;;9.23;1.10;;;;;;;;;;5107756;28;20059;-75
2023/01/31 00:16:32;;;;;;;3.55;0.80;;;;;;;;;;5108130;28;20050;-74
2023/01/31 00:19:04;;;;;;;5.45;1.10;;;;;;;;;;5107957;28;20051;-73
2023/01/31 00:21:35;;;;;;;8.73;0.90;;;;;;;;;;5113282;27;20043;-74
2023/01/31 00:24:06;;;;;;;5.15;1.10;;;;;;;;;;5115116;27;20341;-72
2023/01/31 00:26:44;;;;;;;2.50;0.93;;;;;;;;;;5119079;27;20396;-73
2023/01/31 00:29:15;;;;;;;4.68;1.45;;;;;;;;;;5128779;27;20039;-73
2023/01/31 00:31:52;;;;;;;6.28;1.10;;;;;;;;;;5128313;27;20051;-73
2023/01/31 00:34:22;;;;;;;8.77;1.52;;;;;;;;;;5128592;27;20054;-73
2023/01/31 00:36:57;;;;;;;7.85;1.38;;;;;;;;;;5129013;27;20204;-73
2023/01/31 00:39:28;;;;;;;1.70;1.00;;;;;;;;;;5128441;27;20054;-73
2023/01/31 00:41:58;;;;;;;2.05;0.82;;;;;;;;;;5127741;27;20055;-74
2023/01/31 00:44:29;;;;;;;6.18;0.90;;;;;;;;;;5127794;27;20054;-74
2023/01/31 00:47:02;;;;;;;9.07;1.02;;;;;;;;;;5130901;27;20047;-73
2023/01/31 00:49:32;;;;;;;3.33;1.20;;;;;;;;;;5134600;27;20307;-72
2023/01/31 00:52:04;;;;;;;4.63;0.98;;;;;;;;;;5129032;27;20047;-72
2023/01/31 00:54:34;;;;;;;6.82;1.02;;;;;;;;;;5127924;27;20439;-75
2023/01/31 00:57:06;;;;;;;3.97;1.10;;;;;;;;;;5126048;27;20650;-75
2023/01/31 00:59:36;;;;;;;3.83;1.20;;;;;;;;;;5126224;27;20110;-75
2023/01/31 01:02:08;;;;;;;3.22;1.13;;;;;;;;;;5128475;27;20512;-75
2023/01/31 01:04:38;;;;;;;4.72;1.17;;;;;;;;;;5127629;27;20047;-79
2023/01/31 01:07:09;;;;;;;5.85;1.33;;;;;;;;;;5127073;27;20051;-76
2023/01/31 01:09:39;;;;;;;6.72;2.05;;;;;;;;;;5125604;27;20047;-75
2023/01/31 01:12:09;;;;;;;7.18;2.92;;;;;;;;;;5125679;27;20047;-77
2023/01/31 01:14:39;;;;;;;8.18;2.72;;;;;;;;;;5127285;27;20074;-73
2023/01/31 01:17:09;;;;;;;5.35;2.63;;;;;;;;;;5126840;27;20047;-75
2023/01/31 01:19:40;;;;;;;3.28;1.70;;;;;;;;;;5125088;27;20051;-75
2023/01/31 01:22:14;;;;;;;4.13;1.40;;;;;;;;;;5128049;27;20047;-75
2023/01/31 01:24:45;;;;;;;3.95;1.35;;;;;;;;;;5127859;27;20050;-75
2023/01/31 01:27:15;;;;;;;3.13;1.00;;;;;;;;;;5127479;27;20058;-74
2023/01/31 01:29:45;;;;;;;4.22;1.10;;;;;;;;;;5126937;27;20054;-74
2023/01/31 01:32:16;;;;;;;3.50;1.15;;;;;;;;;;5125271;28;20502;-79
2023/01/31 01:34:47;;;;;;;5.07;2.00;;;;;;;;;;5124262;28;20047;-74
2023/01/31 01:37:21;;;;;;;2.70;1.25;;;;;;;;;;5123819;28;20042;-75
2023/01/31 01:39:52;;;;;;;4.50;1.00;;;;;;;;;;5125412;27;20610;-74
2023/01/31 01:42:26;;;;;;;7.72;1.30;;;;;;;;;;5124737;27;20062;-75
2023/01/31 01:45:01;;;;;;;3.17;1.33;;;;;;;;;;5125057;28;20047;-76
2023/01/31 01:47:45;;;;;;;7.80;1.45;;;;;;;;;;5124900;28;20039;-76
2023/01/31 01:50:34;;;;;;;6.90;1.20;;;;;;;;;;5126975;28;20050;-76
2023/01/31 01:53:26;;;;;;;6.45;1.42;;;;;;;;;;5126726;28;20047;-76
2023/01/31 01:56:05;;;;;;;5.47;1.00;;;;;;;;;;5124654;28;20043;-74
2023/01/31 01:58:51;;;;;;;4.43;1.40;;;;;;;;;;5126799;28;20043;-76
2023/01/31 02:01:24;;;;;;;3.63;1.48;;;;;;;;;;5126919;28;20043;-75
2023/01/31 02:03:54;;;;;;;6.57;1.38;;;;;;;;;;5127095;28;20136;-77
2023/01/31 02:06:25;;;;;;;6.05;2.30;;;;;;;;;;5126073;28;20059;-76
2023/01/31 02:08:56;;;;;;;7.43;1.70;;;;;;;;;;5127169;28;20058;-76
2023/01/31 02:11:31;;;;;;;4.32;1.63;;;;;;;;;;5124916;28;20051;-75
2023/01/31 02:14:11;;;;;;;2.33;1.48;;;;;;;;;;5126978;28;20763;-77
2023/01/31 02:16:42;;;;;;;4.40;1.55;;;;;;;;;;5127148;28;20047;-75
2023/01/31 02:19:44;;;;;;;5.38;1.25;;;;;;;;;;5128583;27;20055;-75
2023/01/31 02:22:37;;;;;;;5.88;1.70;;;;;;;;;;5128983;27;20043;-75
2023/01/31 02:25:12;;;;;;;5.28;1.40;;;;;;;;;;5129416;27;20047;-76
2023/01/31 02:27:56;;;;;;;7.07;1.40;;;;;;;;;;5129372;27;20051;-76
2023/01/31 02:30:27;;;;;;;3.80;1.20;;;;;;;;;;5130493;27;20066;-77
2023/01/31 02:33:02;;;;;;;4.93;1.58;;;;;;;;;;5129078;27;20513;-76
2023/01/31 02:36:03;;;;;;;7.78;1.50;;;;;;;;;;5129966;27;20055;-77
2023/01/31 02:38:52;;;;;;;4.07;1.50;;;;;;;;;;5128964;27;20047;-75
2023/01/31 02:41:36;;;;;;;5.28;1.50;;;;;;;;;;5130664;27;20494;-75
2023/01/31 02:47:24;;;;;;;4.50;1.33;;;;;;;;;;5128491;27;20524;-74
2023/01/31 02:50:17;;;;;;;3.97;1.35;;;;;;;;;;5129459;27;20043;-76
2023/01/31 02:53:14;;;;;;;8.02;1.17;;;;;;;;;;5128746;27;20046;-77
2023/01/31 02:58:39;;;;;;;8.40;1.27;;;;;;;;;;5130475;27;20039;-73
2023/01/31 03:01:15;;;;;;;4.18;1.35;;;;;;;;;;5128331;27;20044;-75
2023/01/31 03:03:46;;;;;;;6.55;1.40;;;;;;;;;;5129811;27;20047;-76
2023/01/31 03:06:23;;;;;;;4.40;1.35;;;;;;;;;;5130496;27;20054;-75
2023/01/31 03:08:57;;;;;;;8.38;1.48;;;;;;;;;;5128149;27;20051;-75
2023/01/31 03:12:00;;;;;;;2.25;1.30;;;;;;;;;;5128879;27;20532;-74
2023/01/31 03:15:12;;;;;;;5.15;1.50;;;;;;;;;;5128613;27;20062;-75
2023/01/31 03:17:44;;;;;;;5.05;1.08;;;;;;;;;;5127455;27;20054;-76
2023/01/31 03:20:21;;;;;;;2.50;1.10;;;;;;;;;;5128471;27;20066;-75
2023/01/31 03:23:10;;;;;;;4.00;1.30;;;;;;;;;;5129860;27;20039;-76
2023/01/31 03:25:42;;;;;;;5.15;1.60;;;;;;;;;;5112757;27;20058;-76
2023/01/31 03:28:16;;;;;;;8.48;1.50;;;;;;;;;;5127331;27;20055;-76
2023/01/31 03:31:10;;;;;;;3.30;1.45;;;;;;;;;;5126577;27;20062;-76
2023/01/31 03:34:06;;;;;;;3.28;1.15;;;;;;;;;;5128144;27;20067;-76
2023/01/31 03:36:58;;;;;;;5.18;1.60;;;;;;;;;;5119510;27;20054;-75
2023/01/31 03:40:07;;;;;;;5.70;1.23;;;;;;;;;;5129047;27;20054;-74
2023/01/31 03:43:13;;;;;;;4.15;1.58;;;;;;;;;;5127377;27;20536;-74
2023/01/31 03:45:59;;;;;;;6.13;1.98;;;;;;;;;;5118899;27;20043;-75
2023/01/31 03:48:37;;;;;;;4.65;1.45;;;;;;;;;;5127218;27;20550;-74
2023/01/31 03:51:17;;;;;;;9.27;1.60;;;;;;;;;;5127235;27;20051;-74
2023/01/31 03:54:01;;;;;;;4.57;1.60;;;;;;;;;;5127174;27;20043;-74
2023/01/31 03:56:52;;;;;;;2.15;1.35;;;;;;;;;;5128415;27;20485;-74
2023/01/31 03:59:28;;;;;;;5.68;1.40;;;;;;;;;;5127430;27;20094;-74
2023/01/31 04:02:03;;;;;;;;;;;;;;;;;;5129979;27;20406;-78
2023/01/31 04:04:47;;;;;;;2.35;1.30;;;;;;;;;;5129515;27;19919;-74
2023/01/31 04:07:17;;;;;;;5.63;1.42;;;;;;;;;;5127065;27;20068;-75
2023/01/31 04:09:48;;;;;;;2.80;1.38;;;;;;;;;;5126898;27;20051;-75
2023/01/31 04:12:19;;;;;;;4.22;1.30;;;;;;;;;;5126744;27;20536;-73
2023/01/31 04:14:50;;;;;;;4.28;1.35;;;;;;;;;;5128463;27;20482;-74
2023/01/31 04:17:20;;;;;;;4.32;1.30;;;;;;;;;;5128568;27;20058;-76
2023/01/31 04:19:50;;;;;;;1.90;1.17;;;;;;;;;;5129392;27;20116;-75
2023/01/31 04:22:21;;;;;;;6.63;1.65;;;;;;;;;;5128970;27;20051;-76
2023/01/31 04:24:51;;;;;;;7.85;1.75;;;;;;;;;;5128635;27;20501;-74
2023/01/31 04:27:23;;;;;;;5.97;1.30;;;;;;;;;;5128421;27;20039;-74
2023/01/31 04:29:53;;;;;;;4.38;1.30;;;;;;;;;;5128578;27;20043;-74
2023/01/31 04:32:23;;;;;;;6.45;1.40;;;;;;;;;;5128535;27;20050;-76
2023/01/31 04:34:54;;;;;;;7.90;1.52;;;;;;;;;;5126522;27;20073;-74
2023/01/31 04:37:27;;;;;;;4.82;1.70;;;;;;;;;;5126770;27;20043;-75
2023/01/31 04:39:57;;;;;;;5.00;1.40;;;;;;;;;;5129116;27;20062;-75
2023/01/31 04:42:27;;;;;;;5.82;1.52;;;;;;;;;;5128650;27;20035;-76
2023/01/31 04:44:59;;;;;;;1.90;1.30;;;;;;;;;;5128781;27;20047;-73
2023/01/31 04:47:30;;;;;;;4.30;1.50;;;;;;;;;;5128384;27;20062;-74
2023/01/31 04:50:00;;;;;;;5.97;1.70;;;;;;;;;;5127871;27;20055;-77
2023/01/31 04:52:30;;;;;;;6.18;2.15;;;;;;;;;;5126097;27;20055;-74
2023/01/31 04:55:03;;;;;;;7.32;2.15;;;;;;;;;;5127895;27;20054;-75
2023/01/31 04:57:34;;;;;;;11.23;2.72;;;;;;;;;;5128153;27;20047;-75
2023/01/31 05:00:04;;;;;;;6.43;2.17;;;;;;;;;;5128124;27;20046;-75
2023/01/31 05:02:35;;;;;;;9.15;2.30;;;;;;;;;;5128305;27;20039;-74
2023/01/31 05:05:07;;;;;;;7.20;2.30;;;;;;;;;;5127920;27;20039;-73
2023/01/31 05:07:39;;;;;;;8.07;2.90;;;;;;;;;;5128156;27;20505;-75
2023/01/31 05:10:10;;;;;;;11.20;3.53;;;;;;;;;;5127939;27;20043;-75
2023/01/31 05:12:41;;;;;;;7.47;3.47;;;;;;;;;;5126606;27;20054;-74
2023/01/31 05:15:12;;;;;;;8.60;3.67;;;;;;;;;;5127794;27;20486;-74
2023/01/31 05:17:43;;;;;;;12.00;3.72;;;;;;;;;;5127448;27;20043;-74
2023/01/31 05:20:15;;;;;;;6.45;3.45;;;;;;;;;;5127353;27;20043;-74
2023/01/31 05:22:49;;;;;;;5.68;2.70;;;;;;;;;;5128155;27;20147;-75
2023/01/31 05:25:20;;;;;;;6.80;2.88;;;;;;;;;;5127787;27;20524;-74
2023/01/31 05:27:53;;;;;;;7.60;2.25;;;;;;;;;;5127737;27;20047;-73
2023/01/31 05:30:25;;;;;;;4.57;2.20;;;;;;;;;;5127001;27;20050;-74
2023/01/31 05:32:55;;;;;;;7.80;2.15;;;;;;;;;;5127320;28;20050;-75
2023/01/31 05:35:26;;;;;;;2.97;1.83;;;;;;;;;;5127395;28;20050;-75
2023/01/31 05:37:58;;;;;;;4.28;1.80;;;;;;;;;;5127411;28;20047;-74
2023/01/31 05:40:28;;;;;;;9.02;2.03;;;;;;;;;;5127607;28;20043;-73
2023/01/31 05:43:02;;;;;;;4.72;2.05;;;;;;;;;;5127728;28;20387;-75
2023/01/31 05:45:33;;;;;;;8.20;2.60;;;;;;;;;;5127332;28;20043;-74
2023/01/31 05:48:04;;;;;;;4.03;2.50;;;;;;;;;;5127202;28;20047;-74
2023/01/31 05:50:36;;;;;;;5.47;2.63;;;;;;;;;;5127363;28;20047;-76
2023/01/31 05:53:09;;;;;;;5.90;2.10;;;;;;;;;;5126616;27;20051;-76
2023/01/31 05:55:40;;;;;;;3.10;2.03;;;;;;;;;;5131803;27;20047;-75
2023/01/31 05:58:10;;;;;;;7.18;2.47;;;;;;;;;;5131693;27;20043;-74
2023/01/31 06:00:40;;;;;;;6.20;2.25;;;;;;;;;;5130663;27;20066;-74
2023/01/31 06:03:11;;;;;;;4.43;1.95;;;;;;;;;;5132201;27;20043;-76
2023/01/31 06:05:42;;;;;;;4.18;1.70;;;;;;;;;;5129805;27;20054;-75
2023/01/31 06:08:12;;;;;;;11.07;2.20;;;;;;;;;;5131485;27;20043;-74
2023/01/31 06:10:43;;;;;;;5.18;1.52;;;;;;;;;;5131416;27;20070;-74
2023/01/31 06:13:14;;;;;;;5.80;1.60;;;;;;;;;;5130661;27;20039;-74
2023/01/31 06:15:44;;;;;;;4.40;1.85;;;;;;;;;;5131084;27;20550;-76
2023/01/31 06:18:15;;;;;;;6.10;1.52;;;;;;;;;;5130398;27;20832;-74
2023/01/31 06:20:47;;;;;;;5.57;1.73;;;;;;;;;;5129079;27;20061;-76
2023/01/31 06:23:17;;;;;;;6.20;1.60;;;;;;;;;;5112099;27;20054;-76
2023/01/31 06:25:50;;;;;;;4.68;1.42;;;;;;;;;;5130947;27;20043;-75
2023/01/31 06:28:21;;;;;;;6.32;2.38;;;;;;;;;;5131119;27;20047;-73
2023/01/31 06:30:52;;;;;;;9.52;2.03;;;;;;;;;;5131568;27;20051;-75
2023/01/31 06:33:23;;;;;;;5.25;2.28;;;;;;;;;;5130470;27;20045;-75
2023/01/31 06:36:12;;;;;;;8.65;2.60;;;;;;;;;;5130283;27;20050;-74
2023/01/31 06:38:51;;;;;;;4.30;2.58;;;;;;;;;;5130595;27;20058;-75
2023/01/31 06:41:21;;;;;;;6.75;2.38;;;;;;;;;;5130828;27;20494;-76
2023/01/31 06:43:52;;;;;;;9.57;2.33;;;;;;;;;;5130501;27;20041;-74
2023/01/31 06:46:23;;;;;;;7.40;2.30;;;;;;;;;;5130431;27;20054;-74
2023/01/31 06:48:54;;;;;;;8.52;2.67;;;;;;;;;;5129072;27;20406;-73
2023/01/31 06:51:25;;;;;;;5.78;2.95;;;;;;;;;;5131058;27;20031;-75
2023/01/31 06:53:56;;;;;;;7.63;2.80;;;;;;;;;;5130753;27;20043;-74
2023/01/31 06:56:26;;;;;;;8.98;2.90;;;;;;;;;;5130666;27;20035;-73
2023/01/31 06:58:56;;;;;;;4.20;2.63;;;;;;;;;;5130259;27;20050;-73
2023/01/31 07:01:26;;;;;;;11.25;3.20;;;;;;;;;;5131017;27;20050;-73
2023/01/31 07:03:58;;;;;;;8.40;3.00;;;;;;;;;;5131212;27;20050;-75
2023/01/31 07:06:28;;;;;;;4.80;3.17;;;;;;;;;;5129054;27;20065;-74
2023/01/31 07:09:00;;;;;;;8.82;3.78;;;;;;;;;;5130342;27;20387;-75
2023/01/31 07:11:30;;;;;;;7.70;3.60;;;;;;;;;;5128217;27;20093;-74
2023/01/31 07:14:01;;;;;;;9.15;3.28;;;;;;;;;;5129963;27;20047;-74
2023/01/31 07:16:31;;;;;;;11.70;3.72;;;;;;;;;;5128657;27;20047;-73
2023/01/31 07:19:01;;;;;;;8.45;2.95;;;;;;;;;;5129608;27;20054;-76
2023/01/31 07:21:35;;;;;;;11.45;3.30;;;;;;;;;;5129943;27;20035;-75
2023/01/31 07:24:06;;;;;;;6.03;2.95;;;;;;;;;;5129819;27;20054;-76
2023/01/31 07:26:36;;;;;;;9.43;3.40;;;;;;;;;;5130632;27;20043;-74
2023/01/31 07:29:07;;;;;;;7.82;3.17;;;;;;;;;;5129367;27;20051;-74
2023/01/31 07:31:38;;;;;;;6.95;3.08;;;;;;;;;;5129494;27;20062;-75
2023/01/31 07:34:09;;;;;;;6.95;3.20;;;;;;;;;;5129243;27;20043;-73
2023/01/31 07:36:40;;;;;;;5.50;3.45;;;;;;;;;;5129735;27;20055;-75
2023/01/31 07:39:12;;;;;;;6.20;2.83;;;;;;;;;;5129692;27;20047;-74
2023/01/31 07:41:42;;;;;;;12.65;3.60;;;;;;;;;;5129285;27;20196;-73
2023/01/31 07:44:15;;;;;;;8.15;3.45;;;;;;;;;;5127784;27;20047;-74
2023/01/31 07:46:45;;;;;;;9.50;3.90;;;;;;;;;;5129259;27;20043;-74
2023/01/31 07:49:16;;;;;;;7.35;3.72;;;;;;;;;;5128885;27;20050;-74
2023/01/31 07:51:46;;;;;;;7.05;4.25;;;;;;;;;;5129210;27;20053;-75
2023/01/31 07:54:17;;;;;;;10.85;4.43;;;;;;;;;;5129998;27;20039;-73
2023/01/31 07:56:48;;;;;;;12.02;4.18;;;;;;;;;;5128747;27;20497;-76
2023/01/31 07:59:19;;;;;;;9.88;3.33;;;;;;;;;;5129598;27;20401;-73
2023/01/31 08:04:38;;;;;;;8.13;4.10;;;;;;;;;;5128884;27;20059;-74
2023/01/31 08:07:09;;;;;;;6.45;4.03;;;;;;;;;;5129058;27;20051;-74
2023/01/31 08:09:39;;;;;;;10.18;3.75;;;;;;;;;;5128587;27;20405;-73
2023/01/31 08:12:09;;;;;;;9.00;3.80;;;;;;;;;;5128161;27;20043;-75
2023/01/31 08:14:39;;;;;;;6.82;3.60;;;;;;;;;;5128505;27;20039;-74
2023/01/31 08:17:10;;;;;;;5.70;3.38;;;;;;;;;;5128345;27;20054;-76
2023/01/31 08:19:40;;;;;;;8.35;3.53;;;;;;;;;;5128395;27;20058;-76
2023/01/31 08:22:11;;;;;;;7.90;3.47;;;;;;;;;;5129210;27;20043;-75
2023/01/31 08:24:41;;;;;;;12.57;4.45;;;;;;;;;;5127859;27;20692;-73
2023/01/31 08:27:12;;;;;;;7.20;4.13;;;;;;;;;;5128823;27;20493;-75
2023/01/31 08:29:43;;;;;;;9.13;3.95;;;;;;;;;;5128115;27;20047;-76
2023/01/31 08:32:14;;;;;;;8.77;4.28;;;;;;;;;;5128655;27;20046;-73
2023/01/31 08:34:45;;;;;;;6.13;3.90;;;;;;;;;;5128382;27;20532;-72
2023/01/31 08:37:15;;;;;;;10.80;3.88;;;;;;;;;;5128888;27;20043;-74
2023/01/31 08:39:47;;;;;;;8.30;3.53;;;;;;;;;;5128299;27;20070;-75
2023/01/31 08:42:18;;;;;;;7.57;3.63;;;;;;;;;;5128298;27;20043;-74
2023/01/31 08:44:49;;;;;;;8.15;3.65;;;;;;;;;;5127302;27;20055;-74
2023/01/31 08:47:19;;;;;;;10.52;4.10;;;;;;;;;;5126010;27;20055;-75
2023/01/31 08:49:49;;;;;;;10.45;4.00;;;;;;;;;;5128196;27;20051;-76
2023/01/31 08:52:20;;;;;;;6.88;3.80;;;;;;;;;;5128102;27;20391;-74
2023/01/31 08:54:50;;;;;;;8.57;4.20;;;;;;;;;;5127965;27;20039;-75
2023/01/31 08:57:20;;;;;;;7.30;4.18;;;;;;;;;;5126336;27;20057;-77
2023/01/31 08:59:51;;;;;;;11.38;4.32;;;;;;;;;;5127724;27;20035;-75
2023/01/31 09:02:21;;;;;;;12.43;4.25;;;;;;;;;;5127950;27;20383;-75
2023/01/31 09:04:51;;;;;;;6.03;4.00;;;;;;;;;;5128334;27;20417;-76
2023/01/31 09:07:21;;;;;;;8.38;4.28;;;;;;;;;;5127878;27;20430;-75
2023/01/31 09:09:52;;;;;;;6.10;4.03;;;;;;;;;;5127729;27;20051;-75
2023/01/31 09:12:22;;;;;;;7.32;3.95;;;;;;;;;;5128007;27;20054;-76
2023/01/31 09:14:53;;;;;;;10.63;3.85;;;;;;;;;;5128192;27;20043;-74
2023/01/31 09:17:24;;;;;;;7.35;4.05;;;;;;;;;;5128083;27;20043;-74
2023/01/31 09:19:56;;;;;;;9.55;4.50;;;;;;;;;;5127584;27;20059;-75
2023/01/31 09:22:32;;;;;;;11.65;4.10;;;;;;;;;;5127529;27;20047;-75
2023/01/31 09:25:04;;;;;;;7.30;3.80;;;;;;;;;;5127599;27;20043;-75
2023/01/31 09:27:37;;;;;;;8.60;3.80;;;;;;;;;;5128079;27;20054;-76
2023/01/31 09:30:09;;;;;;;5.88;3.45;;;;;;;;;;5127527;27;20054;-74
2023/01/31 09:32:43;;;;;;;10.65;3.58;;;;;;;;;;5124796;27;20051;-76
2023/01/31 09:35:15;;;;;;;7.72;3.55;;;;;;;;;;5127556;28;20050;-76
2023/01/31 09:37:45;;;;;;;11.63;3.50;;;;;;;;;;5127066;28;20050;-79
2023/01/31 09:40:25;;;;;;;5.97;4.07;;;;;;;;;;5127562;28;20435;-76
2023/01/31 09:43:00;;;;;;;7.13;4.43;;;;;;;;;;5127180;28;20140;-75
2023/01/31 09:45:42;;;;;;;8.23;4.07;;;;;;;;;;5126021;28;20054;-74
2023/01/31 09:48:21;;;;;;;6.25;3.83;;;;;;;;;;5127708;28;20493;-74
2023/01/31 09:50:54;;;;;;;7.15;3.63;;;;;;;;;;5127554;28;20055;-75
2023/01/31 09:53:32;;;;;;;7.97;3.80;;;;;;;;;;5127478;28;20051;-75
2023/01/31 09:56:09;;;;;;;8.77;3.85;;;;;;;;;;5125745;28;20047;-76
2023/01/31 09:59:13;;;;;;;10.32;4.03;;;;;;;;;;5127320;28;20039;-76
2023/01/31 10:02:00;;;;;;;16.70;6.30;;;;;;;;;;5127319;28;20047;-74
2023/01/31 10:04:30;;;;;;;8.13;4.20;;;;;;;;;;5126887;28;20043;-76
2023/01/31 10:07:08;;;;;;;9.80;4.13;;;;;;;;;;5126864;28;20516;-76
2023/01/31 10:10:12;;;;;;;8.77;3.95;;;;;;;;;;5126992;28;20058;-76
2023/01/31 10:12:51;;;;;;;6.68;4.13;;;;;;;;;;5095162;27;20051;-75
2023/01/31 10:15:29;;;;;;;13.48;5.55;;;;;;;;;;5127805;28;20046;-76
2023/01/31 10:18:23;;;;;;;8.20;5.35;;;;;;;;;;5127078;28;20046;-77
2023/01/31 10:21:00;;;;;;;11.10;4.80;;;;;;;;;;5126891;28;20050;-76
2023/01/31 10:23:39;;;;;;;9.07;3.80;;;;;;;;;;5123268;28;20050;-76
2023/01/31 10:26:15;;;;;;;9.10;3.75;;;;;;;;;;5106547;28;20462;-75
2023/01/31 10:29:09;;;;;;;9.93;5.47;;;;;;;;;;5105838;28;20509;-76
2023/01/31 10:32:11;;;;;;;8.30;3.83;;;;;;;;;;5106079;28;20601;-77
2023/01/31 10:34:51;;;;;;;10.20;4.03;;;;;;;;;;5106454;28;20047;-75
2023/01/31 10:37:41;;;;;;;5.40;3.83;;;;;;;;;;5107009;28;20495;-79
2023/01/31 10:40:25;;;;;;;10.05;4.30;;;;;;;;;;5107853;28;20044;-76
2023/01/31 10:43:04;;;;;;;7.53;3.50;;;;;;;;;;5109425;28;20055;-76
2023/01/31 10:45:34;;;;;;;5.13;3.22;;;;;;;;;;5110002;28;20525;-75
2023/01/31 10:48:16;;;;;;;8.38;3.63;;;;;;;;;;5109986;28;20050;-74
2023/01/31 10:50:52;;;;;;;7.30;4.07;;;;;;;;;;5109813;28;20056;-75
2023/01/31 10:53:48;;;;;;;6.28;3.65;;;;;;;;;;5109986;28;20585;-77
2023/01/31 10:56:20;;;;;;;12.57;3.40;;;;;;;;;;5109620;28;20043;-76
2023/01/31 10:58:52;;;;;;;7.28;3.47;;;;;;;;;;5109761;28;20047;-75
2023/01/31 11:01:23;;;;;;;10.10;3.30;;;;;;;;;;5110531;28;20547;-76
2023/01/31 11:03:55;;;;;;;7.00;3.67;;;;;;;;;;5110893;28;20047;-75
2023/01/31 11:06:27;;;;;;;6.82;3.17;;;;;;;;;;5110636;28;20475;-78
2023/01/31 11:09:00;;;;;;;5.28;3.20;;;;;;;;;;5109731;28;20066;-76
2023/01/31 11:11:31;;;;;;;9.77;3.50;;;;;;;;;;5108030;28;20062;-75
2023/01/31 11:14:15;;;;;;;4.97;3.33;;;;;;;;;;5109732;28;20047;-74
2023/01/31 11:16:47;;;;;;;9.60;3.40;;;;;;;;;;5107032;28;20062;-74
2023/01/31 11:19:24;;;;;;;6.93;3.53;;;;;;;;;;5109523;28;20040;-75
2023/01/31 11:21:56;;;;;;;6.20;3.50;;;;;;;;;;5109278;28;20497;-75
2023/01/31 11:24:29;;;;;;;6.63;3.58;;;;;;;;;;5109606;28;20490;-77
2023/01/31 11:27:03;;;;;;;4.00;2.72;;;;;;;;;;5109487;28;20050;-76
2023/01/31 11:29:44;;;;;;;5.45;3.15;;;;;;;;;;5109941;28;20048;-81
2023/01/31 11:32:21;;;;;;;5.22;3.08;;;;;;;;;;5108858;28;20059;-76
2023/01/31 11:35:14;;;;;;;7.43;3.10;;;;;;;;;;5108782;28;20048;-76
2023/01/31 11:37:58;;;;;;;3.78;2.28;;;;;;;;;;5109141;28;20059;-77
2023/01/31 11:40:31;;;;;;;4.18;2.70;;;;;;;;;;5108412;28;20044;-75
2023/01/31 11:43:25;;;;;;;7.10;2.88;;;;;;;;;;5109146;28;20044;-76
2023/01/31 11:46:00;;;;;;;11.15;4.50;;;;;;;;;;5100764;28;20056;-77
2023/01/31 11:48:41;;;;;;;;;;;;;;;;;;5109476;28;20532;-75
2023/01/31 11:51:29;;;;;;;5.85;2.63;;;;;;;;;;5108889;28;19931;-77
2023/01/31 11:54:04;;;;;;;8.93;5.13;;;;;;;;;;5109257;28;20418;-76
2023/01/31 11:56:37;;;;;;;7.00;2.97;;;;;;;;;;5108450;28;20514;-76
2023/01/31 11:59:12;;;;;;;6.55;2.90;;;;;;;;;;5108661;28;20413;-77
2023/01/31 12:01:55;;;;;;;6.50;2.55;;;;;;;;;;5108580;28;20055;-75
2023/01/31 12:04:40;;;;;;;6.22;2.92;;;;;;;;;;5106350;28;20059;-77
2023/01/31 12:07:27;;;;;;;9.18;2.92;;;;;;;;;;5107897;28;20039;-76
2023/01/31 12:09:58;;;;;;;9.30;2.88;;;;;;;;;;5108764;28;20402;-78
2023/01/31 12:12:34;;;;;;;6.43;2.75;;;;;;;;;;5107954;28;20043;-79
2023/01/31 12:15:15;;;;;;;4.50;3.20;;;;;;;;;;5108362;28;20408;-75
2023/01/31 12:17:48;;;;;;;7.07;3.13;;;;;;;;;;5107863;28;20054;-76
2023/01/31 12:20:37;;;;;;;18.90;5.03;;;;;;;;;;5108692;28;20044;-76
2023/01/31 12:23:52;;;;;;;4.63;2.35;;;;;;;;;;5107855;28;20148;-76
2023/01/31 12:26:45;;;;;;;5.05;2.97;;;;;;;;;;5044632;28;20044;-76
2023/01/31 12:29:42;;;;;;;7.00;3.00;;;;;;;;;;5107700;28;20048;-76
2023/01/31 12:32:40;;;;;;;5.57;3.05;;;;;;;;;;5108187;28;20486;-77
2023/01/31 12:35:32;;;;;;;5.53;3.17;;;;;;;;;;5108324;28;20062;-76
2023/01/31 12:38:09;;;;;;;11.88;3.22;;;;;;;;;;5107082;28;20043;-76
2023/01/31 12:40:45;;;;;;;6.22;3.17;;;;;;;;;;5107566;28;20063;-75
2023/01/31 12:43:34;;;;;;;14.50;3.30;;;;;;;;;;5107489;28;20051;-76
2023/01/31 12:46:28;;;;;;;5.00;2.65;;;;;;;;;;5108067;28;20047;-76
2023/01/31 12:49:35;;;;;;;6.30;3.28;;;;;;;;;;5107842;28;20379;-76
2023/01/31 12:52:05;;;;;;;9.32;3.15;;;;;;;;;;5107631;28;20849;-75
2023/01/31 12:54:50;;;;;;;9.70;3.67;;;;;;;;;;5107314;28;20035;-77
2023/01/31 12:57:42;;;;;;;12.73;4.88;;;;;;;;;;5107440;28;20046;-76
2023/01/31 13:00:36;;;;;;;10.27;3.92;;;;;;;;;;5107734;28;20052;-75
2023/01/31 13:03:19;;;;;;;10.73;3.72;;;;;;;;;;5107405;28;20052;-75
2023/01/31 13:06:08;;;;;;;10.80;3.83;;;;;;;;;;5106943;28;20039;-75
2023/01/31 13:08:40;;;;;;;8.13;3.67;;;;;;;;;;5107631;28;20066;-75
2023/01/31 13:11:34;;;;;;;6.72;3.65;;;;;;;;;;5107416;28;20050;-75
2023/01/31 13:14:14;;;;;;;11.10;3.53;;;;;;;;;;5107180;28;20055;-77
2023/01/31 13:16:50;;;;;;;8.70;2.65;;;;;;;;;;5107448;28;20054;-76
2023/01/31 13:19:29;;;;;;;8.30;2.58;;;;;;;;;;5106932;28;20047;-76
2023/01/31 13:22:31;;;;;;;5.20;2.78;;;;;;;;;;5107108;28;20427;-75
2023/01/31 13:25:07;;;;;;;5.38;2.95;;;;;;;;;;5107107;28;20054;-77
2023/01/31 13:27:43;;;;;;;4.75;2.85;;;;;;;;;;5106808;28;20047;-76
2023/01/31 13:30:34;;;;;;;8.55;3.13;;;;;;;;;;5106488;28;20066;-76
2023/01/31 13:33:22;;;;;;;7.15;2.55;;;;;;;;;;5107133;28;20054;-75
2023/01/31 13:36:14;;;;;;;6.65;2.70;;;;;;;;;;5106661;28;20532;-75
2023/01/31 13:38:48;;;;;;;6.15;2.50;;;;;;;;;;5106618;28;20604;-77
2023/01/31 13:41:29;;;;;;;2.25;1.90;;;;;;;;;;5106999;28;20054;-73
2023/01/31 13:44:01;;;;;;;3.65;2.10;;;;;;;;;;5107195;28;20044;-75
2023/01/31 13:46:48;;;;;;;4.13;2.17;;;;;;;;;;5106818;28;20533;-75
2023/01/31 13:49:26;;;;;;;3.30;2.03;;;;;;;;;;5107097;28;20391;-75
2023/01/31 13:52:26;;;;;;;3.78;1.52;;;;;;;;;;5106056;28;20492;-77
2023/01/31 13:55:02;;;;;;;4.32;2.00;;;;;;;;;;5101798;28;20063;-74
2023/01/31 13:57:46;;;;;;;4.78;2.03;;;;;;;;;;5107369;28;20055;-78
2023/01/31 14:00:37;;;;;;;4.60;1.73;;;;;;;;;;5106913;28;20051;-74
2023/01/31 14:03:15;;;;;;;3.90;1.80;;;;;;;;;;5106564;28;20525;-77
2023/01/31 14:05:57;;;;;;;5.20;1.73;;;;;;;;;;5106553;28;20054;-84
2023/01/31 14:08:46;;;;;;;3.50;1.52;;;;;;;;;;5106330;28;20054;-75
2023/01/31 14:11:16;;;;;;;2.08;1.52;;;;;;;;;;5104500;28;20426;-77
2023/01/31 14:13:48;;;;;;;5.35;1.60;;;;;;;;;;5106520;28;20515;-77
2023/01/31 14:16:35;;;;;;;3.03;1.55;;;;;;;;;;5110307;28;20048;-75
2023/01/31 14:19:20;;;;;;;2.65;1.48;;;;;;;;;;5111635;28;20048;-74
2023/01/31 14:22:04;;;;;;;3.42;1.63;;;;;;;;;;5110450;28;20047;-77
2023/01/31 14:24:55;;;;;;;5.95;1.70;;;;;;;;;;5110168;28;20066;-74
2023/01/31 14:27:34;;;;;;;3.33;1.33;;;;;;;;;;5110794;28;20039;-78
2023/01/31 14:30:07;;;;;;;5.93;1.50;;;;;;;;;;5110155;28;20039;-78
2023/01/31 14:33:03;;;;;;;4.38;1.30;;;;;;;;;;5109659;28;20062;-76
2023/01/31 14:36:00;;;;;;;4.20;1.38;;;;;;;;;;5109876;28;20047;-75
2023/01/31 14:38:52;;;;;;;5.97;1.90;;;;;;;;;;5107841;28;20518;-78
2023/01/31 14:41:50;;;;;;;4.65;1.63;;;;;;;;;;5109841;28;20430;-77
2023/01/31 14:44:44;;;;;;;4.20;1.65;;;;;;;;;;5110286;28;20156;-75
2023/01/31 14:47:57;;;;;;;6.18;1.45;;;;;;;;;;5108059;28;20055;-75
2023/01/31 14:50:51;;;;;;;4.45;1.80;;;;;;;;;;5084513;28;20055;-77
2023/01/31 14:53:57;;;;;;;10.90;1.63;;;;;;;;;;5109930;28;20056;-74
2023/01/31 14:56:52;;;;;;;5.10;1.55;;;;;;;;;;5110347;28;20046;-78
2023/01/31 14:59:34;;;;;;;3.20;1.63;;;;;;;;;;5110246;28;20051;-79
2023/01/31 15:02:32;;;;;;;;;;;;;;;;;;5110089;28;20039;-76
2023/01/31 15:05:21;;;;;;;5.95;1.52;;;;;;;;;;5108782;28;19927;-75
2023/01/31 15:08:03;;;;;;;1.60;1.50;;;;;;;;;;5112278;28;20672;-78
2023/01/31 15:10:54;;;;;;;4.60;1.80;;;;;;;;;;5114900;28;20035;-75
2023/01/31 15:13:38;;;;;;;4.05;1.88;;;;;;;;;;5109668;28;20067;-77
2023/01/31 15:16:18;;;;;;;4.28;1.63;;;;;;;;;;5110043;28;20047;-77
2023/01/31 15:19:06;;;;;;;2.10;1.63;;;;;;;;;;5110337;28;20062;-75
2023/01/31 15:22:01;;;;;;;3.72;2.10;;;;;;;;;;5110176;28;20058;-77
2023/01/31 15:24:38;;;;;;;3.72;1.63;;;;;;;;;;5109594;28;20105;-76
2023/01/31 15:27:29;;;;;;;6.10;1.60;;;;;;;;;;5108304;28;20059;-76
2023/01/31 15:30:17;;;;;;;4.25;1.83;;;;;;;;;;5109332;28;20051;-76
2023/01/31 15:33:07;;;;;;;4.28;2.08;;;;;;;;;;5109553;28;20055;-76
2023/01/31 15:36:22;;;;;;;3.35;1.55;;;;;;;;;;5109378;28;20048;-76
2023/01/31 15:38:55;;;;;;;;;;;;;;;;;;5108924;28;20054;-76
2023/01/31 15:41:40;;;;;;;6.18;1.92;;;;;;;;;;5109303;28;19924;-76
2023/01/31 15:44:29;;;;;;;4.05;1.77;;;;;;;;;;5108873;28;20048;-78
2023/01/31 15:47:02;;;;;;;2.72;1.52;;;;;;;;;;5108979;28;20132;-79
2023/01/31 15:49:41;;;;;;;2.33;1.48;;;;;;;;;;5109238;28;20035;-78
2023/01/31 15:52:15;;;;;;;2.85;1.40;;;;;;;;;;5110344;28;20047;-76
2023/01/31 15:55:02;;;;;;;5.03;1.73;;;;;;;;;;5108650;28;20040;-78